Αρχική σελίδα
METAR-TAF:

METAR-TAF

Αεροδρόμια :

Córdoba, Αργεντινή

γεωγραφικό πλάτος: 31-19S, γεωγραφικό μήκος: 064-13W, υψόμετρο: 484 μ

Παρών καιρός

Η αναφορά έγινε 1 ώρα και 6 λεπτά πριν, στις 03:00 UTC
Άνεμος 8 kt από
Θερμοκρασία 6°C
Υγρασία 56%
Πίεση 1023 hPa
Ορατότητα 10 χλμ και άνω
Δεν υπάρχουν νέφη με βάση κάτω από τα 1500 μ. και δεν υπάρχουν νέφη σωρειτομελανίτες.

METAR: SACO 180300Z 31008KT CAVOK 06/M02 Q1023 NOSIG

Χρόνος: 01:06 (04:06 UTC)

Πρόγνωση Καιρού

Η αναφορά έγινε 5 ώρες και 6 λεπτά πριν, στις 23:00 UTC
Η πρόγνωση ισχύει από τις 18 στις 00 UTC έως τις 18 στις 24 UTC
Άνεμος 5 kt από Β/BΔ
Ορατότητα 10 χλμ και άνω
Δεν υπάρχουν νέφη με βάση κάτω από τα 1500 μ. και δεν υπάρχουν νέφη σωρειτομελανίτες.
Καθιστάμενος
από 18 στις 14 UTC έως τις 18 στις 16 UTC
Άνεμος 10 kt από BA

TAF: SACO 172300Z 1800/1824 34005KT CAVOK TX23/1818Z TNM01/1809Z BECMG 1814/1816 05010KT

Μετεωρολογικές αναφορές και προγνώσεις για περισσότερα από 4000 αεροδρόμια (δελτία METAR και TAF).

Οι διαθέσιμοι σταθμοί απεικονίζονται στο χάρτη με κίτρινες και κόκκινες κουκκίδες.

Μετακινήστε το ποντίκι πάνω από τις κουκκίδες για να δείτε το όνομα του σταθμού.

Στη συνέχεια, κάντε κλικ για να δείτε τις μετεωρολογικές αναφορές και τις προγνώσεις καιρού.

Για να αλλάξετε το χάρτη: κάντε κλικ στα πράσινα κουμπιά με τον μαύρο σταυρό για να ζουμάρετε, στο πράσινο κουμπί με την παύλα για να αφαιρέσετε το ζουμ ή στα πράσινα βέλη για να αντιπαραβάλλετε χάρτες.


METAR-TAF: